sensor_id;sensor_type;location;lat;lon;timestamp;temperature;humidity
75683;HTU21D;64295;44.772;39.872;2024-01-30T00:02:12;-3.48;68.54
75683;HTU21D;64295;44.772;39.872;2024-01-30T00:04:38;-3.46;68.36
75683;HTU21D;64295;44.772;39.872;2024-01-30T00:07:04;-3.49;68.49
75683;HTU21D;64295;44.772;39.872;2024-01-30T00:09:30;-3.45;68.49
75683;HTU21D;64295;44.772;39.872;2024-01-30T00:11:56;-3.46;68.44
75683;HTU21D;64295;44.772;39.872;2024-01-30T00:14:22;-3.43;68.49
75683;HTU21D;64295;44.772;39.872;2024-01-30T00:16:48;-3.40;68.38
75683;HTU21D;64295;44.772;39.872;2024-01-30T00:19:15;-3.40;68.35
75683;HTU21D;64295;44.772;39.872;2024-01-30T00:21:41;-3.41;68.44
75683;HTU21D;64295;44.772;39.872;2024-01-30T00:24:06;-3.42;68.49
75683;HTU21D;64295;44.772;39.872;2024-01-30T00:26:32;-3.40;68.33
75683;HTU21D;64295;44.772;39.872;2024-01-30T00:28:58;-3.43;68.42
75683;HTU21D;64295;44.772;39.872;2024-01-30T00:31:24;-3.46;68.43
75683;HTU21D;64295;44.772;39.872;2024-01-30T00:33:50;-3.48;68.49
75683;HTU21D;64295;44.772;39.872;2024-01-30T00:36:16;-3.47;68.54
75683;HTU21D;64295;44.772;39.872;2024-01-30T00:38:42;-3.48;68.46
75683;HTU21D;64295;44.772;39.872;2024-01-30T00:41:08;-3.49;68.45
75683;HTU21D;64295;44.772;39.872;2024-01-30T00:43:35;-3.50;68.52
75683;HTU21D;64295;44.772;39.872;2024-01-30T00:46:01;-3.50;68.53
75683;HTU21D;64295;44.772;39.872;2024-01-30T00:48:27;-3.53;68.46
75683;HTU21D;64295;44.772;39.872;2024-01-30T00:50:53;-3.60;68.58
75683;HTU21D;64295;44.772;39.872;2024-01-30T00:53:19;-3.65;68.66
75683;HTU21D;64295;44.772;39.872;2024-01-30T00:55:45;-3.66;68.68
75683;HTU21D;64295;44.772;39.872;2024-01-30T00:58:11;-3.67;68.68
75683;HTU21D;64295;44.772;39.872;2024-01-30T01:00:37;-3.63;68.68
75683;HTU21D;64295;44.772;39.872;2024-01-30T01:03:03;-3.65;68.63
75683;HTU21D;64295;44.772;39.872;2024-01-30T01:05:29;-3.65;68.62
75683;HTU21D;64295;44.772;39.872;2024-01-30T01:07:55;-3.66;68.62
75683;HTU21D;64295;44.772;39.872;2024-01-30T01:10:21;-3.71;68.62
75683;HTU21D;64295;44.772;39.872;2024-01-30T01:12:48;-3.72;68.71
75683;HTU21D;64295;44.772;39.872;2024-01-30T01:15:14;-3.77;68.65
75683;HTU21D;64295;44.772;39.872;2024-01-30T01:17:40;-3.75;68.69
75683;HTU21D;64295;44.772;39.872;2024-01-30T01:20:07;-3.72;68.58
75683;HTU21D;64295;44.772;39.872;2024-01-30T01:22:33;-3.72;68.58
75683;HTU21D;64295;44.772;39.872;2024-01-30T01:25:00;-3.72;68.57
75683;HTU21D;64295;44.772;39.872;2024-01-30T01:27:26;-3.72;68.61
75683;HTU21D;64295;44.772;39.872;2024-01-30T01:29:52;-3.67;68.48
75683;HTU21D;64295;44.772;39.872;2024-01-30T01:32:19;-3.72;68.51
75683;HTU21D;64295;44.772;39.872;2024-01-30T01:34:45;-3.74;68.52
75683;HTU21D;64295;44.772;39.872;2024-01-30T01:37:11;-3.71;68.57
75683;HTU21D;64295;44.772;39.872;2024-01-30T01:39:37;-3.67;68.49
75683;HTU21D;64295;44.772;39.872;2024-01-30T01:42:03;-3.67;68.45
75683;HTU21D;64295;44.772;39.872;2024-01-30T01:44:29;-3.67;68.45
75683;HTU21D;64295;44.772;39.872;2024-01-30T01:46:56;-3.72;68.50
75683;HTU21D;64295;44.772;39.872;2024-01-30T01:49:25;-3.77;68.55
75683;HTU21D;64295;44.772;39.872;2024-01-30T01:51:55;-3.81;68.68
75683;HTU21D;64295;44.772;39.872;2024-01-30T01:54:22;-3.78;68.60
75683;HTU21D;64295;44.772;39.872;2024-01-30T01:56:49;-3.77;68.55
75683;HTU21D;64295;44.772;39.872;2024-01-30T01:59:17;-3.77;68.54
75683;HTU21D;64295;44.772;39.872;2024-01-30T02:01:44;-3.72;68.52
75683;HTU21D;64295;44.772;39.872;2024-01-30T02:04:11;-3.71;68.49
75683;HTU21D;64295;44.772;39.872;2024-01-30T02:06:37;-3.71;68.43
75683;HTU21D;64295;44.772;39.872;2024-01-30T02:09:04;-3.72;68.47
75683;HTU21D;64295;44.772;39.872;2024-01-30T02:11:30;-3.78;68.41
75683;HTU21D;64295;44.772;39.872;2024-01-30T02:14:01;-3.81;68.59
75683;HTU21D;64295;44.772;39.872;2024-01-30T02:16:27;-3.83;68.55
75683;HTU21D;64295;44.772;39.872;2024-01-30T02:18:53;-3.89;68.64
75683;HTU21D;64295;44.772;39.872;2024-01-30T02:21:19;-3.90;68.70
75683;HTU21D;64295;44.772;39.872;2024-01-30T02:23:46;-3.91;68.65
75683;HTU21D;64295;44.772;39.872;2024-01-30T02:26:12;-3.93;68.65
75683;HTU21D;64295;44.772;39.872;2024-01-30T02:28:38;-3.91;68.68
75683;HTU21D;64295;44.772;39.872;2024-01-30T02:31:05;-3.84;68.61
75683;HTU21D;64295;44.772;39.872;2024-01-30T02:33:31;-3.82;68.46
75683;HTU21D;64295;44.772;39.872;2024-01-30T02:35:57;-3.80;68.49
75683;HTU21D;64295;44.772;39.872;2024-01-30T02:38:22;-3.81;68.40
75683;HTU21D;64295;44.772;39.872;2024-01-30T02:40:52;-3.87;68.42
75683;HTU21D;64295;44.772;39.872;2024-01-30T02:43:18;-3.97;68.59
75683;HTU21D;64295;44.772;39.872;2024-01-30T02:45:44;-4.06;68.70
75683;HTU21D;64295;44.772;39.872;2024-01-30T02:48:10;-4.06;68.80
75683;HTU21D;64295;44.772;39.872;2024-01-30T02:50:36;-4.02;68.74
75683;HTU21D;64295;44.772;39.872;2024-01-30T02:53:02;-3.98;68.61
75683;HTU21D;64295;44.772;39.872;2024-01-30T02:55:28;-3.98;68.53
75683;HTU21D;64295;44.772;39.872;2024-01-30T02:57:54;-3.98;68.55
75683;HTU21D;64295;44.772;39.872;2024-01-30T03:00:20;-3.98;68.53
75683;HTU21D;64295;44.772;39.872;2024-01-30T03:02:46;-4.02;68.51
75683;HTU21D;64295;44.772;39.872;2024-01-30T03:05:12;-4.04;68.57
75683;HTU21D;64295;44.772;39.872;2024-01-30T03:07:38;-4.08;68.54
75683;HTU21D;64295;44.772;39.872;2024-01-30T03:10:05;-4.12;68.71
75683;HTU21D;64295;44.772;39.872;2024-01-30T03:12:32;-4.09;68.62
75683;HTU21D;64295;44.772;39.872;2024-01-30T03:14:57;-4.10;68.64
75683;HTU21D;64295;44.772;39.872;2024-01-30T03:17:23;-4.08;68.54
75683;HTU21D;64295;44.772;39.872;2024-01-30T03:19:50;-4.14;68.56
75683;HTU21D;64295;44.772;39.872;2024-01-30T03:22:16;-4.19;68.66
75683;HTU21D;64295;44.772;39.872;2024-01-30T03:24:42;-4.19;68.70
75683;HTU21D;64295;44.772;39.872;2024-01-30T03:27:08;-4.20;68.63
75683;HTU21D;64295;44.772;39.872;2024-01-30T03:29:34;-4.26;68.69
75683;HTU21D;64295;44.772;39.872;2024-01-30T03:32:00;-4.31;68.71
75683;HTU21D;64295;44.772;39.872;2024-01-30T03:34:26;-4.36;68.84
75683;HTU21D;64295;44.772;39.872;2024-01-30T03:36:52;-4.36;68.81
75683;HTU21D;64295;44.772;39.872;2024-01-30T03:39:18;-4.32;68.78
75683;HTU21D;64295;44.772;39.872;2024-01-30T03:41:44;-4.25;68.70
75683;HTU21D;64295;44.772;39.872;2024-01-30T03:44:10;-4.23;68.52
75683;HTU21D;64295;44.772;39.872;2024-01-30T03:46:36;-4.26;68.50
75683;HTU21D;64295;44.772;39.872;2024-01-30T03:49:02;-4.25;68.58
75683;HTU21D;64295;44.772;39.872;2024-01-30T03:51:29;-4.24;68.49
75683;HTU21D;64295;44.772;39.872;2024-01-30T03:53:55;-4.27;68.49
75683;HTU21D;64295;44.772;39.872;2024-01-30T03:56:21;-4.31;68.53
75683;HTU21D;64295;44.772;39.872;2024-01-30T03:58:46;-4.36;68.64
75683;HTU21D;64295;44.772;39.872;2024-01-30T04:01:13;-4.36;68.62
75683;HTU21D;64295;44.772;39.872;2024-01-30T04:03:40;-4.34;68.65
75683;HTU21D;64295;44.772;39.872;2024-01-30T04:06:06;-4.35;68.59
75683;HTU21D;64295;44.772;39.872;2024-01-30T04:08:31;-4.32;68.62
75683;HTU21D;64295;44.772;39.872;2024-01-30T04:10:58;-4.26;68.51
75683;HTU21D;64295;44.772;39.872;2024-01-30T04:13:24;-4.19;68.41
75683;HTU21D;64295;44.772;39.872;2024-01-30T04:15:49;-4.15;68.33
75683;HTU21D;64295;44.772;39.872;2024-01-30T04:18:15;-4.19;68.26
75683;HTU21D;64295;44.772;39.872;2024-01-30T04:20:41;-4.20;68.39
75683;HTU21D;64295;44.772;39.872;2024-01-30T04:23:07;-4.22;68.40
75683;HTU21D;64295;44.772;39.872;2024-01-30T04:25:39;-4.15;68.38
75683;HTU21D;64295;44.772;39.872;2024-01-30T04:28:05;-4.11;68.29
75683;HTU21D;64295;44.772;39.872;2024-01-30T04:30:31;-4.13;68.18
75683;HTU21D;64295;44.772;39.872;2024-01-30T04:32:57;-4.22;68.40
75683;HTU21D;64295;44.772;39.872;2024-01-30T04:35:22;-4.23;68.48
75683;HTU21D;64295;44.772;39.872;2024-01-30T04:37:52;-4.22;68.48
75683;HTU21D;64295;44.772;39.872;2024-01-30T04:40:19;-3.55;68.41
75683;HTU21D;64295;44.772;39.872;2024-01-30T04:42:45;-3.46;67.60
75683;HTU21D;64295;44.772;39.872;2024-01-30T04:45:11;-3.39;67.63
75683;HTU21D;64295;44.772;39.872;2024-01-30T04:47:37;-3.46;67.68
75683;HTU21D;64295;44.772;39.872;2024-01-30T04:50:08;-3.63;67.84
75683;HTU21D;64295;44.772;39.872;2024-01-30T04:52:34;-3.76;68.14
75683;HTU21D;64295;44.772;39.872;2024-01-30T04:55:00;-3.83;68.38
75683;HTU21D;64295;44.772;39.872;2024-01-30T04:57:26;-3.84;68.36
75683;HTU21D;64295;44.772;39.872;2024-01-30T04:59:52;-3.96;68.35
75683;HTU21D;64295;44.772;39.872;2024-01-30T05:02:18;-4.10;68.60
75683;HTU21D;64295;44.772;39.872;2024-01-30T05:04:43;-4.20;68.78
75683;HTU21D;64295;44.772;39.872;2024-01-30T05:07:13;-4.27;68.82
75683;HTU21D;64295;44.772;39.872;2024-01-30T05:09:38;-4.24;68.92
75683;HTU21D;64295;44.772;39.872;2024-01-30T05:12:04;-4.29;68.81
75683;HTU21D;64295;44.772;39.872;2024-01-30T05:14:31;-4.34;68.87
75683;HTU21D;64295;44.772;39.872;2024-01-30T05:16:57;-4.35;68.87
75683;HTU21D;64295;44.772;39.872;2024-01-30T05:19:22;-4.29;68.79
75683;HTU21D;64295;44.772;39.872;2024-01-30T05:21:49;-4.29;68.66
75683;HTU21D;64295;44.772;39.872;2024-01-30T05:24:15;-4.29;68.66
75683;HTU21D;64295;44.772;39.872;2024-01-30T05:26:41;-4.27;68.59
75683;HTU21D;64295;44.772;39.872;2024-01-30T05:29:07;-4.23;68.51
75683;HTU21D;64295;44.772;39.872;2024-01-30T05:31:36;-4.19;68.43
75683;HTU21D;64295;44.772;39.872;2024-01-30T05:34:02;-4.12;68.30
75683;HTU21D;64295;44.772;39.872;2024-01-30T05:36:28;-4.08;68.25
75683;HTU21D;64295;44.772;39.872;2024-01-30T05:38:54;-4.02;68.15
75683;HTU21D;64295;44.772;39.872;2024-01-30T05:41:20;-3.96;68.09
75683;HTU21D;64295;44.772;39.872;2024-01-30T05:43:46;-3.72;67.93
75683;HTU21D;64295;44.772;39.872;2024-01-30T05:46:12;-3.38;67.65
75683;HTU21D;64295;44.772;39.872;2024-01-30T05:48:38;-3.32;67.36
75683;HTU21D;64295;44.772;39.872;2024-01-30T05:51:04;-3.16;67.60
75683;HTU21D;64295;44.772;39.872;2024-01-30T05:53:30;-3.11;67.19
75683;HTU21D;64295;44.772;39.872;2024-01-30T05:55:56;-3.10;67.52
75683;HTU21D;64295;44.772;39.872;2024-01-30T05:58:22;-3.05;67.42
75683;HTU21D;64295;44.772;39.872;2024-01-30T06:00:48;-3.03;67.52
75683;HTU21D;64295;44.772;39.872;2024-01-30T06:03:14;-2.96;67.60
75683;HTU21D;64295;44.772;39.872;2024-01-30T06:05:40;-2.87;67.62
75683;HTU21D;64295;44.772;39.872;2024-01-30T06:08:06;-2.76;67.46
75683;HTU21D;64295;44.772;39.872;2024-01-30T06:10:32;-2.62;67.39
75683;HTU21D;64295;44.772;39.872;2024-01-30T06:12:58;-2.45;67.41
75683;HTU21D;64295;44.772;39.872;2024-01-30T06:15:24;-2.38;67.17
75683;HTU21D;64295;44.772;39.872;2024-01-30T06:17:50;-2.27;67.43
75683;HTU21D;64295;44.772;39.872;2024-01-30T06:20:16;-2.14;67.14
75683;HTU21D;64295;44.772;39.872;2024-01-30T06:22:42;-2.10;67.04
75683;HTU21D;64295;44.772;39.872;2024-01-30T06:25:08;-2.09;67.17
75683;HTU21D;64295;44.772;39.872;2024-01-30T06:27:34;-2.00;67.11
75683;HTU21D;64295;44.772;39.872;2024-01-30T06:30:01;-1.89;66.95
75683;HTU21D;64295;44.772;39.872;2024-01-30T06:32:27;-1.80;66.95
75683;HTU21D;64295;44.772;39.872;2024-01-30T06:34:54;-1.69;66.90
75683;HTU21D;64295;44.772;39.872;2024-01-30T06:37:20;-1.60;66.77
75683;HTU21D;64295;44.772;39.872;2024-01-30T06:39:46;-1.53;66.81
75683;HTU21D;64295;44.772;39.872;2024-01-30T06:42:11;-1.39;66.72
75683;HTU21D;64295;44.772;39.872;2024-01-30T06:44:37;-1.28;66.60
75683;HTU21D;64295;44.772;39.872;2024-01-30T06:47:03;-1.26;66.46
75683;HTU21D;64295;44.772;39.872;2024-01-30T06:49:30;-1.16;66.78
75683;HTU21D;64295;44.772;39.872;2024-01-30T06:51:56;-0.98;66.57
75683;HTU21D;64295;44.772;39.872;2024-01-30T06:54:22;-0.80;66.35
75683;HTU21D;64295;44.772;39.872;2024-01-30T06:56:47;-0.62;66.24
75683;HTU21D;64295;44.772;39.872;2024-01-30T06:59:14;-0.54;66.15
75683;HTU21D;64295;44.772;39.872;2024-01-30T07:01:39;-0.44;66.26
75683;HTU21D;64295;44.772;39.872;2024-01-30T07:04:05;-0.22;66.20
75683;HTU21D;64295;44.772;39.872;2024-01-30T07:06:31;-0.12;65.97
75683;HTU21D;64295;44.772;39.872;2024-01-30T07:08:57;-0.11;66.08
75683;HTU21D;64295;44.772;39.872;2024-01-30T07:11:23;-0.05;66.16
75683;HTU21D;64295;44.772;39.872;2024-01-30T07:13:52;-0.02;66.20
75683;HTU21D;64295;44.772;39.872;2024-01-30T07:16:18;0.01;66.30
75683;HTU21D;64295;44.772;39.872;2024-01-30T07:18:44;0.10;66.29
75683;HTU21D;64295;44.772;39.872;2024-01-30T07:21:11;0.21;66.17
75683;HTU21D;64295;44.772;39.872;2024-01-30T07:23:36;0.42;66.12
75683;HTU21D;64295;44.772;39.872;2024-01-30T07:26:05;0.52;65.99
75683;HTU21D;64295;44.772;39.872;2024-01-30T07:28:32;0.65;65.99
75683;HTU21D;64295;44.772;39.872;2024-01-30T07:30:58;0.79;65.88
75683;HTU21D;64295;44.772;39.872;2024-01-30T07:33:24;0.87;65.92
75683;HTU21D;64295;44.772;39.872;2024-01-30T07:35:52;0.96;65.91
75683;HTU21D;64295;44.772;39.872;2024-01-30T07:38:18;1.06;65.93
75683;HTU21D;64295;44.772;39.872;2024-01-30T07:40:44;1.13;65.91
75683;HTU21D;64295;44.772;39.872;2024-01-30T07:43:10;1.21;65.93
75683;HTU21D;64295;44.772;39.872;2024-01-30T07:45:36;1.24;65.96
75683;HTU21D;64295;44.772;39.872;2024-01-30T07:48:05;1.18;66.20
75683;HTU21D;64295;44.772;39.872;2024-01-30T07:50:31;1.23;66.42
75683;HTU21D;64295;44.772;39.872;2024-01-30T07:52:59;1.37;66.39
75683;HTU21D;64295;44.772;39.872;2024-01-30T07:55:26;1.53;66.13
75683;HTU21D;64295;44.772;39.872;2024-01-30T07:57:57;1.57;66.13
75683;HTU21D;64295;44.772;39.872;2024-01-30T08:00:23;1.67;66.17
75683;HTU21D;64295;44.772;39.872;2024-01-30T08:02:48;1.92;65.98
75683;HTU21D;64295;44.772;39.872;2024-01-30T08:05:14;2.13;65.73
75683;HTU21D;64295;44.772;39.872;2024-01-30T08:07:41;2.21;65.78
75683;HTU21D;64295;44.772;39.872;2024-01-30T08:10:08;2.30;65.79
75683;HTU21D;64295;44.772;39.872;2024-01-30T08:12:34;2.44;65.77
75683;HTU21D;64295;44.772;39.872;2024-01-30T08:15:00;2.57;65.69
75683;HTU21D;64295;44.772;39.872;2024-01-30T08:17:26;2.62;65.71
75683;HTU21D;64295;44.772;39.872;2024-01-30T08:19:52;2.68;65.88
75683;HTU21D;64295;44.772;39.872;2024-01-30T08:22:18;2.84;65.77
75683;HTU21D;64295;44.772;39.872;2024-01-30T08:24:44;2.88;65.75
75683;HTU21D;64295;44.772;39.872;2024-01-30T08:29:38;3.14;65.66
75683;HTU21D;64295;44.772;39.872;2024-01-30T08:32:06;3.27;65.62
75683;HTU21D;64295;44.772;39.872;2024-01-30T08:34:32;3.35;65.65
75683;HTU21D;64295;44.772;39.872;2024-01-30T08:36:58;3.45;65.55
75683;HTU21D;64295;44.772;39.872;2024-01-30T08:39:24;3.61;65.44
75683;HTU21D;64295;44.772;39.872;2024-01-30T08:41:50;3.65;65.50
75683;HTU21D;64295;44.772;39.872;2024-01-30T08:44:16;3.71;65.55
75683;HTU21D;64295;44.772;39.872;2024-01-30T08:46:46;3.83;65.49
75683;HTU21D;64295;44.772;39.872;2024-01-30T08:49:32;3.83;65.56
75683;HTU21D;64295;44.772;39.872;2024-01-30T08:52:11;3.93;65.60
75683;HTU21D;64295;44.772;39.872;2024-01-30T08:54:37;3.95;65.69
75683;HTU21D;64295;44.772;39.872;2024-01-30T08:57:24;0.00;65.62
75683;HTU21D;64295;44.772;39.872;2024-01-30T08:59:55;4.16;65.46
75683;HTU21D;64295;44.772;39.872;2024-01-30T09:02:34;4.00;65.71
75683;HTU21D;64295;44.772;39.872;2024-01-30T09:05:09;4.05;65.86
75683;HTU21D;64295;44.772;39.872;2024-01-30T09:07:49;4.04;65.87
75683;HTU21D;64295;44.772;39.872;2024-01-30T09:10:15;4.06;65.85
75683;HTU21D;64295;44.772;39.872;2024-01-30T09:12:41;4.14;66.01
75683;HTU21D;64295;44.772;39.872;2024-01-30T09:15:07;4.26;65.93
75683;HTU21D;64295;44.772;39.872;2024-01-30T09:17:33;4.41;65.65
75683;HTU21D;64295;44.772;39.872;2024-01-30T09:19:59;4.52;65.73
75683;HTU21D;64295;44.772;39.872;2024-01-30T09:22:25;4.68;65.50
75683;HTU21D;64295;44.772;39.872;2024-01-30T09:24:51;4.89;65.37
75683;HTU21D;64295;44.772;39.872;2024-01-30T09:27:17;5.09;65.13
75683;HTU21D;64295;44.772;39.872;2024-01-30T09:29:43;5.12;65.14
75683;HTU21D;64295;44.772;39.872;2024-01-30T09:32:09;5.24;65.03
75683;HTU21D;64295;44.772;39.872;2024-01-30T09:34:35;5.22;65.20
75683;HTU21D;64295;44.772;39.872;2024-01-30T09:37:01;5.23;65.15
75683;HTU21D;64295;44.772;39.872;2024-01-30T09:39:28;5.18;65.41
75683;HTU21D;64295;44.772;39.872;2024-01-30T09:42:16;5.10;65.59
75683;HTU21D;64295;44.772;39.872;2024-01-30T09:44:43;5.23;65.56
75683;HTU21D;64295;44.772;39.872;2024-01-30T09:47:10;5.32;65.36
75683;HTU21D;64295;44.772;39.872;2024-01-30T09:49:36;5.40;65.27
75683;HTU21D;64295;44.772;39.872;2024-01-30T09:52:07;5.49;65.15
75683;HTU21D;64295;44.772;39.872;2024-01-30T09:54:34;5.56;65.17
75683;HTU21D;64295;44.772;39.872;2024-01-30T09:57:00;5.67;65.05
75683;HTU21D;64295;44.772;39.872;2024-01-30T09:59:26;5.69;65.11
75683;HTU21D;64295;44.772;39.872;2024-01-30T10:01:52;5.81;65.01
75683;HTU21D;64295;44.772;39.872;2024-01-30T10:04:18;5.89;64.99
75683;HTU21D;64295;44.772;39.872;2024-01-30T10:06:44;5.93;65.04
75683;HTU21D;64295;44.772;39.872;2024-01-30T10:09:10;6.12;64.92
75683;HTU21D;64295;44.772;39.872;2024-01-30T10:11:36;6.21;64.73
75683;HTU21D;64295;44.772;39.872;2024-01-30T10:14:02;6.29;64.72
75683;HTU21D;64295;44.772;39.872;2024-01-30T10:16:29;6.20;64.91
75683;HTU21D;64295;44.772;39.872;2024-01-30T10:18:54;6.27;64.95
75683;HTU21D;64295;44.772;39.872;2024-01-30T10:21:21;6.36;64.82
75683;HTU21D;64295;44.772;39.872;2024-01-30T10:23:47;6.35;64.84
75683;HTU21D;64295;44.772;39.872;2024-01-30T10:26:13;6.25;65.15
75683;HTU21D;64295;44.772;39.872;2024-01-30T10:28:39;6.23;65.04
75683;HTU21D;64295;44.772;39.872;2024-01-30T10:31:05;6.30;65.18
75683;HTU21D;64295;44.772;39.872;2024-01-30T10:33:31;6.44;64.95
75683;HTU21D;64295;44.772;39.872;2024-01-30T10:36:02;6.63;64.76
75683;HTU21D;64295;44.772;39.872;2024-01-30T10:38:29;6.80;64.53
75683;HTU21D;64295;44.772;39.872;2024-01-30T10:40:57;6.83;64.49
75683;HTU21D;64295;44.772;39.872;2024-01-30T10:43:47;6.76;64.71
75683;HTU21D;64295;44.772;39.872;2024-01-30T10:48:43;6.82;64.75
75683;HTU21D;64295;44.772;39.872;2024-01-30T10:51:13;6.64;64.96
75683;HTU21D;64295;44.772;39.872;2024-01-30T10:53:39;6.42;65.24
75683;HTU21D;64295;44.772;39.872;2024-01-30T10:56:06;6.40;65.46
75683;HTU21D;64295;44.772;39.872;2024-01-30T10:58:32;6.49;65.11
75683;HTU21D;64295;44.772;39.872;2024-01-30T11:00:58;6.43;65.17
75683;HTU21D;64295;44.772;39.872;2024-01-30T11:03:25;6.45;65.25
75683;HTU21D;64295;44.772;39.872;2024-01-30T11:05:51;6.58;64.95
75683;HTU21D;64295;44.772;39.872;2024-01-30T11:08:24;6.56;64.98
75683;HTU21D;64295;44.772;39.872;2024-01-30T11:10:56;6.65;64.86
75683;HTU21D;64295;44.772;39.872;2024-01-30T11:13:29;6.73;64.83
75683;HTU21D;64295;44.772;39.872;2024-01-30T11:15:55;6.71;64.77
75683;HTU21D;64295;44.772;39.872;2024-01-30T11:18:25;6.69;64.92
75683;HTU21D;64295;44.772;39.872;2024-01-30T11:20:51;6.65;64.83
75683;HTU21D;64295;44.772;39.872;2024-01-30T11:23:17;6.44;65.16
75683;HTU21D;64295;44.772;39.872;2024-01-30T11:25:44;6.42;65.35
75683;HTU21D;64295;44.772;39.872;2024-01-30T11:28:16;6.49;64.99
75683;HTU21D;64295;44.772;39.872;2024-01-30T11:30:42;6.43;65.08
75683;HTU21D;64295;44.772;39.872;2024-01-30T11:33:10;6.46;64.96
75683;HTU21D;64295;44.772;39.872;2024-01-30T11:35:44;6.50;64.88
75683;HTU21D;64295;44.772;39.872;2024-01-30T11:38:13;6.56;64.70
75683;HTU21D;64295;44.772;39.872;2024-01-30T11:40:39;6.96;64.14
75683;HTU21D;64295;44.772;39.872;2024-01-30T11:43:07;6.98;63.88
75683;HTU21D;64295;44.772;39.872;2024-01-30T11:45:34;6.86;64.18
75683;HTU21D;64295;44.772;39.872;2024-01-30T11:48:00;6.71;64.41
75683;HTU21D;64295;44.772;39.872;2024-01-30T11:50:33;6.73;64.50
75683;HTU21D;64295;44.772;39.872;2024-01-30T11:52:59;6.85;64.27
75683;HTU21D;64295;44.772;39.872;2024-01-30T11:55:26;6.85;64.39
75683;HTU21D;64295;44.772;39.872;2024-01-30T11:57:55;7.01;64.21
75683;HTU21D;64295;44.772;39.872;2024-01-30T12:00:21;7.19;63.97
75683;HTU21D;64295;44.772;39.872;2024-01-30T12:02:52;7.24;63.75
75683;HTU21D;64295;44.772;39.872;2024-01-30T12:05:24;7.16;63.90
75683;HTU21D;64295;44.772;39.872;2024-01-30T12:07:51;7.09;64.04
75683;HTU21D;64295;44.772;39.872;2024-01-30T12:10:17;7.00;64.27
75683;HTU21D;64295;44.772;39.872;2024-01-30T12:12:46;6.97;64.29
75683;HTU21D;64295;44.772;39.872;2024-01-30T12:15:13;6.89;64.30
75683;HTU21D;64295;44.772;39.872;2024-01-30T12:17:39;6.73;64.46
75683;HTU21D;64295;44.772;39.872;2024-01-30T12:20:09;6.68;64.51
75683;HTU21D;64295;44.772;39.872;2024-01-30T12:22:40;6.58;64.59
75683;HTU21D;64295;44.772;39.872;2024-01-30T12:27:39;6.56;64.40
75683;HTU21D;64295;44.772;39.872;2024-01-30T12:30:08;6.50;64.47
75683;HTU21D;64295;44.772;39.872;2024-01-30T12:32:46;6.46;64.39
75683;HTU21D;64295;44.772;39.872;2024-01-30T12:35:14;6.39;64.33
75683;HTU21D;64295;44.772;39.872;2024-01-30T12:37:42;6.29;64.47
75683;HTU21D;64295;44.772;39.872;2024-01-30T12:40:08;6.25;64.47
75683;HTU21D;64295;44.772;39.872;2024-01-30T12:42:35;6.21;64.32
75683;HTU21D;64295;44.772;39.872;2024-01-30T12:45:05;6.13;64.55
75683;HTU21D;64295;44.772;39.872;2024-01-30T12:47:31;6.12;64.27
75683;HTU21D;64295;44.772;39.872;2024-01-30T12:49:58;6.12;64.20
75683;HTU21D;64295;44.772;39.872;2024-01-30T12:52:24;6.09;64.27
75683;HTU21D;64295;44.772;39.872;2024-01-30T12:54:51;6.13;64.05
75683;HTU21D;64295;44.772;39.872;2024-01-30T12:57:18;5.99;64.18
75683;HTU21D;64295;44.772;39.872;2024-01-30T12:59:45;5.96;64.26
75683;HTU21D;64295;44.772;39.872;2024-01-30T13:02:12;6.11;64.02
75683;HTU21D;64295;44.772;39.872;2024-01-30T13:04:39;6.27;63.73
75683;HTU21D;64295;44.772;39.872;2024-01-30T13:07:05;6.29;63.56
75683;HTU21D;64295;44.772;39.872;2024-01-30T13:09:31;6.20;63.66
75683;HTU21D;64295;44.772;39.872;2024-01-30T13:11:58;6.08;63.73
75683;HTU21D;64295;44.772;39.872;2024-01-30T13:14:25;5.94;63.84
75683;HTU21D;64295;44.772;39.872;2024-01-30T13:16:51;5.83;64.04
75683;HTU21D;64295;44.772;39.872;2024-01-30T13:19:17;5.81;63.99
75683;HTU21D;64295;44.772;39.872;2024-01-30T13:21:43;5.78;63.90
75683;HTU21D;64295;44.772;39.872;2024-01-30T13:24:09;5.76;63.86
75683;HTU21D;64295;44.772;39.872;2024-01-30T13:26:36;5.68;63.91
75683;HTU21D;64295;44.772;39.872;2024-01-30T13:29:02;5.63;63.85
75683;HTU21D;64295;44.772;39.872;2024-01-30T13:31:29;5.56;63.86
75683;HTU21D;64295;44.772;39.872;2024-01-30T13:33:55;5.51;63.89
75683;HTU21D;64295;44.772;39.872;2024-01-30T13:36:22;5.53;63.81
75683;HTU21D;64295;44.772;39.872;2024-01-30T13:38:48;5.45;63.74
75683;HTU21D;64295;44.772;39.872;2024-01-30T13:41:14;5.38;63.80
75683;HTU21D;64295;44.772;39.872;2024-01-30T13:43:40;5.35;63.78
75683;HTU21D;64295;44.772;39.872;2024-01-30T13:46:06;5.18;63.89
75683;HTU21D;64295;44.772;39.872;2024-01-30T13:48:32;5.08;64.05
75683;HTU21D;64295;44.772;39.872;2024-01-30T13:50:58;5.04;63.93
75683;HTU21D;64295;44.772;39.872;2024-01-30T13:53:24;4.98;64.01
75683;HTU21D;64295;44.772;39.872;2024-01-30T13:55:50;4.93;63.98
75683;HTU21D;64295;44.772;39.872;2024-01-30T13:58:16;4.79;64.07
75683;HTU21D;64295;44.772;39.872;2024-01-30T14:00:44;4.69;64.12
75683;HTU21D;64295;44.772;39.872;2024-01-30T14:03:10;4.57;64.26
75683;HTU21D;64295;44.772;39.872;2024-01-30T14:05:35;4.48;64.30
75683;HTU21D;64295;44.772;39.872;2024-01-30T14:08:01;4.41;64.33
75683;HTU21D;64295;44.772;39.872;2024-01-30T14:10:27;4.30;64.37
75683;HTU21D;64295;44.772;39.872;2024-01-30T14:12:53;4.26;64.43
75683;HTU21D;64295;44.772;39.872;2024-01-30T14:15:19;4.17;64.40
75683;HTU21D;64295;44.772;39.872;2024-01-30T14:17:46;4.10;64.40
75683;HTU21D;64295;44.772;39.872;2024-01-30T14:20:14;4.02;64.41
75683;HTU21D;64295;44.772;39.872;2024-01-30T14:22:44;3.95;64.44
75683;HTU21D;64295;44.772;39.872;2024-01-30T14:25:10;3.82;64.48
75683;HTU21D;64295;44.772;39.872;2024-01-30T14:27:36;3.71;64.56
75683;HTU21D;64295;44.772;39.872;2024-01-30T14:30:02;3.59;64.62
75683;HTU21D;64295;44.772;39.872;2024-01-30T14:32:29;3.53;64.63
75683;HTU21D;64295;44.772;39.872;2024-01-30T14:34:55;3.47;64.57
75683;HTU21D;64295;44.772;39.872;2024-01-30T14:37:21;3.43;64.55
75683;HTU21D;64295;44.772;39.872;2024-01-30T14:39:48;3.40;64.48
75683;HTU21D;64295;44.772;39.872;2024-01-30T14:42:14;3.33;64.48
75683;HTU21D;64295;44.772;39.872;2024-01-30T14:44:41;3.26;64.48
75683;HTU21D;64295;44.772;39.872;2024-01-30T14:47:07;3.20;64.50
75683;HTU21D;64295;44.772;39.872;2024-01-30T14:49:33;3.16;64.50
75683;HTU21D;64295;44.772;39.872;2024-01-30T14:51:59;3.14;64.46
75683;HTU21D;64295;44.772;39.872;2024-01-30T14:54:27;3.26;64.28
75683;HTU21D;64295;44.772;39.872;2024-01-30T14:56:53;3.19;64.18
75683;HTU21D;64295;44.772;39.872;2024-01-30T14:59:19;3.33;64.18
75683;HTU21D;64295;44.772;39.872;2024-01-30T15:01:45;3.45;64.01
75683;HTU21D;64295;44.772;39.872;2024-01-30T15:04:12;3.65;63.89
75683;HTU21D;64295;44.772;39.872;2024-01-30T15:06:38;3.70;63.56
75683;HTU21D;64295;44.772;39.872;2024-01-30T15:09:08;3.58;63.63
75683;HTU21D;64295;44.772;39.872;2024-01-30T15:11:34;3.44;63.87
75683;HTU21D;64295;44.772;39.872;2024-01-30T15:14:01;3.40;64.08
75683;HTU21D;64295;44.772;39.872;2024-01-30T15:16:27;3.41;64.01